sensor_id;sensor_type;location;lat;lon;timestamp;pressure;altitude;pressure_sealevel;temperature
5571;BMP180;2808;51.240;6.794;2023-05-07T00:00:27;101138.00;;;16.20
5571;BMP180;2808;51.240;6.794;2023-05-07T00:02:55;101144.00;;;16.20
5571;BMP180;2808;51.240;6.794;2023-05-07T00:05:25;101141.00;;;16.10
5571;BMP180;2808;51.240;6.794;2023-05-07T00:07:52;101137.00;;;16.10
5571;BMP180;2808;51.240;6.794;2023-05-07T00:10:20;101138.00;;;16.10
5571;BMP180;2808;51.240;6.794;2023-05-07T00:12:47;101138.00;;;16.10
5571;BMP180;2808;51.240;6.794;2023-05-07T00:15:15;101134.00;;;16.10
5571;BMP180;2808;51.240;6.794;2023-05-07T00:17:43;101133.00;;;16.10
5571;BMP180;2808;51.240;6.794;2023-05-07T00:20:11;101139.00;;;16.00
5571;BMP180;2808;51.240;6.794;2023-05-07T00:22:39;101132.00;;;16.00
5571;BMP180;2808;51.240;6.794;2023-05-07T00:25:07;101123.00;;;16.00
5571;BMP180;2808;51.240;6.794;2023-05-07T00:27:34;101120.00;;;16.00
5571;BMP180;2808;51.240;6.794;2023-05-07T00:30:02;101117.00;;;16.00
5571;BMP180;2808;51.240;6.794;2023-05-07T00:32:29;101134.00;;;16.00
5571;BMP180;2808;51.240;6.794;2023-05-07T00:34:58;101134.00;;;16.00
5571;BMP180;2808;51.240;6.794;2023-05-07T00:37:25;101133.00;;;16.00
5571;BMP180;2808;51.240;6.794;2023-05-07T00:39:52;101124.00;;;16.00
5571;BMP180;2808;51.240;6.794;2023-05-07T00:42:20;101128.00;;;16.00
5571;BMP180;2808;51.240;6.794;2023-05-07T00:44:47;101124.00;;;15.90
5571;BMP180;2808;51.240;6.794;2023-05-07T00:47:15;101123.00;;;15.90
5571;BMP180;2808;51.240;6.794;2023-05-07T00:49:44;101114.00;;;15.90
5571;BMP180;2808;51.240;6.794;2023-05-07T00:52:15;101121.00;;;15.90
5571;BMP180;2808;51.240;6.794;2023-05-07T00:54:43;101123.00;;;15.90
5571;BMP180;2808;51.240;6.794;2023-05-07T00:57:11;101124.00;;;15.90
5571;BMP180;2808;51.240;6.794;2023-05-07T00:59:40;101117.00;;;15.90
5571;BMP180;2808;51.240;6.794;2023-05-07T01:02:08;101113.00;;;15.80
5571;BMP180;2808;51.240;6.794;2023-05-07T01:04:35;101123.00;;;15.80
5571;BMP180;2808;51.240;6.794;2023-05-07T01:07:03;101113.00;;;15.80
5571;BMP180;2808;51.240;6.794;2023-05-07T01:09:33;101122.00;;;15.80
5571;BMP180;2808;51.240;6.794;2023-05-07T01:12:02;101123.00;;;15.80
5571;BMP180;2808;51.240;6.794;2023-05-07T01:14:30;101124.00;;;15.80
5571;BMP180;2808;51.240;6.794;2023-05-07T01:16:59;101125.00;;;15.90
5571;BMP180;2808;51.240;6.794;2023-05-07T01:19:26;101113.00;;;15.90
5571;BMP180;2808;51.240;6.794;2023-05-07T01:22:01;101108.00;;;15.80
5571;BMP180;2808;51.240;6.794;2023-05-07T01:24:31;101110.00;;;15.80
5571;BMP180;2808;51.240;6.794;2023-05-07T01:27:00;101114.00;;;15.80
5571;BMP180;2808;51.240;6.794;2023-05-07T01:29:31;101109.00;;;15.70
5571;BMP180;2808;51.240;6.794;2023-05-07T01:32:00;101108.00;;;15.70
5571;BMP180;2808;51.240;6.794;2023-05-07T01:34:30;101105.00;;;15.70
5571;BMP180;2808;51.240;6.794;2023-05-07T01:36:59;101103.00;;;15.70
5571;BMP180;2808;51.240;6.794;2023-05-07T01:39:31;101107.00;;;15.70
5571;BMP180;2808;51.240;6.794;2023-05-07T01:41:59;101105.00;;;15.60
5571;BMP180;2808;51.240;6.794;2023-05-07T01:44:27;101093.00;;;15.60
5571;BMP180;2808;51.240;6.794;2023-05-07T01:46:55;101093.00;;;15.60
5571;BMP180;2808;51.240;6.794;2023-05-07T01:49:23;101099.00;;;15.60
5571;BMP180;2808;51.240;6.794;2023-05-07T01:51:52;101105.00;;;15.60
5571;BMP180;2808;51.240;6.794;2023-05-07T01:54:22;101102.00;;;15.60
5571;BMP180;2808;51.240;6.794;2023-05-07T01:56:56;101099.00;;;15.60
5571;BMP180;2808;51.240;6.794;2023-05-07T01:59:23;101094.00;;;15.50
5571;BMP180;2808;51.240;6.794;2023-05-07T02:01:51;101096.00;;;15.50
5571;BMP180;2808;51.240;6.794;2023-05-07T02:04:19;101099.00;;;15.50
5571;BMP180;2808;51.240;6.794;2023-05-07T02:06:47;101107.00;;;15.50
5571;BMP180;2808;51.240;6.794;2023-05-07T02:09:14;101093.00;;;15.50
5571;BMP180;2808;51.240;6.794;2023-05-07T02:11:42;101093.00;;;15.50
5571;BMP180;2808;51.240;6.794;2023-05-07T02:14:10;101089.00;;;15.40
5571;BMP180;2808;51.240;6.794;2023-05-07T02:16:38;101088.00;;;15.40
5571;BMP180;2808;51.240;6.794;2023-05-07T02:19:05;101094.00;;;15.40
5571;BMP180;2808;51.240;6.794;2023-05-07T02:21:32;101100.00;;;15.40
5571;BMP180;2808;51.240;6.794;2023-05-07T02:24:00;101094.00;;;15.40
5571;BMP180;2808;51.240;6.794;2023-05-07T02:26:27;101100.00;;;15.40
5571;BMP180;2808;51.240;6.794;2023-05-07T02:28:54;101093.00;;;15.30
5571;BMP180;2808;51.240;6.794;2023-05-07T02:31:23;101094.00;;;15.30
5571;BMP180;2808;51.240;6.794;2023-05-07T02:33:51;101089.00;;;15.30
5571;BMP180;2808;51.240;6.794;2023-05-07T02:36:18;101086.00;;;15.30
5571;BMP180;2808;51.240;6.794;2023-05-07T02:38:45;101084.00;;;15.30
5571;BMP180;2808;51.240;6.794;2023-05-07T02:41:13;101091.00;;;15.30
5571;BMP180;2808;51.240;6.794;2023-05-07T02:43:40;101090.00;;;15.30
5571;BMP180;2808;51.240;6.794;2023-05-07T02:46:08;101094.00;;;15.30
5571;BMP180;2808;51.240;6.794;2023-05-07T02:48:37;101095.00;;;15.30
5571;BMP180;2808;51.240;6.794;2023-05-07T02:51:05;101092.00;;;15.30
5571;BMP180;2808;51.240;6.794;2023-05-07T02:53:32;101091.00;;;15.30
5571;BMP180;2808;51.240;6.794;2023-05-07T02:56:03;101089.00;;;15.30
5571;BMP180;2808;51.240;6.794;2023-05-07T02:58:31;101094.00;;;15.20
5571;BMP180;2808;51.240;6.794;2023-05-07T03:00:59;101092.00;;;15.20
5571;BMP180;2808;51.240;6.794;2023-05-07T03:03:26;101103.00;;;15.20
5571;BMP180;2808;51.240;6.794;2023-05-07T03:05:55;101104.00;;;15.20
5571;BMP180;2808;51.240;6.794;2023-05-07T03:08:22;101093.00;;;15.20
5571;BMP180;2808;51.240;6.794;2023-05-07T03:10:50;101102.00;;;15.20
5571;BMP180;2808;51.240;6.794;2023-05-07T03:13:18;101101.00;;;15.20
5571;BMP180;2808;51.240;6.794;2023-05-07T03:15:45;101100.00;;;15.10
5571;BMP180;2808;51.240;6.794;2023-05-07T03:18:13;101099.00;;;15.10
5571;BMP180;2808;51.240;6.794;2023-05-07T03:20:40;101088.00;;;15.10
5571;BMP180;2808;51.240;6.794;2023-05-07T03:23:09;101086.00;;;15.20
5571;BMP180;2808;51.240;6.794;2023-05-07T03:25:36;101082.00;;;15.10
5571;BMP180;2808;51.240;6.794;2023-05-07T03:28:05;101075.00;;;15.10
5571;BMP180;2808;51.240;6.794;2023-05-07T03:30:33;101080.00;;;15.10
5571;BMP180;2808;51.240;6.794;2023-05-07T03:33:00;101076.00;;;15.10
5571;BMP180;2808;51.240;6.794;2023-05-07T03:35:27;101085.00;;;15.10
5571;BMP180;2808;51.240;6.794;2023-05-07T03:37:55;101086.00;;;15.10
5571;BMP180;2808;51.240;6.794;2023-05-07T03:40:24;101078.00;;;15.10
5571;BMP180;2808;51.240;6.794;2023-05-07T03:42:53;101081.00;;;15.10
5571;BMP180;2808;51.240;6.794;2023-05-07T03:45:20;101080.00;;;15.10
5571;BMP180;2808;51.240;6.794;2023-05-07T03:47:48;101083.00;;;15.10
5571;BMP180;2808;51.240;6.794;2023-05-07T03:50:15;101087.00;;;15.10
5571;BMP180;2808;51.240;6.794;2023-05-07T03:52:43;101080.00;;;15.10
5571;BMP180;2808;51.240;6.794;2023-05-07T03:55:10;101080.00;;;15.10
5571;BMP180;2808;51.240;6.794;2023-05-07T03:57:39;101088.00;;;15.10
5571;BMP180;2808;51.240;6.794;2023-05-07T04:00:07;101089.00;;;15.00
5571;BMP180;2808;51.240;6.794;2023-05-07T04:02:35;101090.00;;;15.00
5571;BMP180;2808;51.240;6.794;2023-05-07T04:05:02;101090.00;;;15.00
5571;BMP180;2808;51.240;6.794;2023-05-07T04:07:30;101091.00;;;15.00
5571;BMP180;2808;51.240;6.794;2023-05-07T04:09:57;101095.00;;;15.00
5571;BMP180;2808;51.240;6.794;2023-05-07T04:12:25;101100.00;;;15.10
5571;BMP180;2808;51.240;6.794;2023-05-07T04:14:53;101101.00;;;15.10
5571;BMP180;2808;51.240;6.794;2023-05-07T04:17:21;101094.00;;;15.20
5571;BMP180;2808;51.240;6.794;2023-05-07T04:19:48;101107.00;;;15.20
5571;BMP180;2808;51.240;6.794;2023-05-07T04:22:15;101110.00;;;15.30
5571;BMP180;2808;51.240;6.794;2023-05-07T04:24:43;101106.00;;;15.30
5571;BMP180;2808;51.240;6.794;2023-05-07T04:27:10;101106.00;;;15.40
5571;BMP180;2808;51.240;6.794;2023-05-07T04:29:38;101103.00;;;15.40
5571;BMP180;2808;51.240;6.794;2023-05-07T04:32:09;101104.00;;;15.40
5571;BMP180;2808;51.240;6.794;2023-05-07T04:34:37;101105.00;;;15.40
5571;BMP180;2808;51.240;6.794;2023-05-07T04:37:04;101104.00;;;15.40
5571;BMP180;2808;51.240;6.794;2023-05-07T04:39:33;101106.00;;;15.40
5571;BMP180;2808;51.240;6.794;2023-05-07T04:42:01;101093.00;;;15.40
5571;BMP180;2808;51.240;6.794;2023-05-07T04:44:29;101094.00;;;15.30
5571;BMP180;2808;51.240;6.794;2023-05-07T04:46:57;101095.00;;;15.30
5571;BMP180;2808;51.240;6.794;2023-05-07T04:49:26;101093.00;;;15.30
5571;BMP180;2808;51.240;6.794;2023-05-07T04:51:56;101095.00;;;15.30
5571;BMP180;2808;51.240;6.794;2023-05-07T04:54:23;101095.00;;;15.40
5571;BMP180;2808;51.240;6.794;2023-05-07T04:56:51;101102.00;;;15.40
5571;BMP180;2808;51.240;6.794;2023-05-07T04:59:18;101108.00;;;15.50
5571;BMP180;2808;51.240;6.794;2023-05-07T05:01:46;101106.00;;;15.50
5571;BMP180;2808;51.240;6.794;2023-05-07T05:04:13;101105.00;;;15.60
5571;BMP180;2808;51.240;6.794;2023-05-07T05:06:42;101104.00;;;15.60
5571;BMP180;2808;51.240;6.794;2023-05-07T05:09:09;101095.00;;;15.70
5571;BMP180;2808;51.240;6.794;2023-05-07T05:11:37;101108.00;;;15.70
5571;BMP180;2808;51.240;6.794;2023-05-07T05:14:04;101113.00;;;15.70
5571;BMP180;2808;51.240;6.794;2023-05-07T05:16:31;101113.00;;;15.60
5571;BMP180;2808;51.240;6.794;2023-05-07T05:18:59;101113.00;;;15.70
5571;BMP180;2808;51.240;6.794;2023-05-07T05:21:26;101112.00;;;15.70
5571;BMP180;2808;51.240;6.794;2023-05-07T05:23:57;101118.00;;;15.70
5571;BMP180;2808;51.240;6.794;2023-05-07T05:26:24;101109.00;;;15.70
5571;BMP180;2808;51.240;6.794;2023-05-07T05:28:51;101119.00;;;15.70
5571;BMP180;2808;51.240;6.794;2023-05-07T05:31:19;101115.00;;;15.80
5571;BMP180;2808;51.240;6.794;2023-05-07T05:33:47;101114.00;;;15.90
5571;BMP180;2808;51.240;6.794;2023-05-07T05:36:14;101115.00;;;16.00
5571;BMP180;2808;51.240;6.794;2023-05-07T05:38:41;101118.00;;;16.10
5571;BMP180;2808;51.240;6.794;2023-05-07T05:41:11;101116.00;;;16.20
5571;BMP180;2808;51.240;6.794;2023-05-07T05:43:38;101122.00;;;16.30
5571;BMP180;2808;51.240;6.794;2023-05-07T05:46:06;101131.00;;;16.40
5571;BMP180;2808;51.240;6.794;2023-05-07T05:48:34;101132.00;;;16.50
5571;BMP180;2808;51.240;6.794;2023-05-07T05:51:02;101129.00;;;16.60
5571;BMP180;2808;51.240;6.794;2023-05-07T05:53:29;101140.00;;;16.60
5571;BMP180;2808;51.240;6.794;2023-05-07T05:55:57;101130.00;;;16.70
5571;BMP180;2808;51.240;6.794;2023-05-07T05:58:26;101129.00;;;16.80
5571;BMP180;2808;51.240;6.794;2023-05-07T06:00:53;101126.00;;;16.80
5571;BMP180;2808;51.240;6.794;2023-05-07T06:03:21;101131.00;;;16.80
5571;BMP180;2808;51.240;6.794;2023-05-07T06:05:48;101118.00;;;16.90
5571;BMP180;2808;51.240;6.794;2023-05-07T06:08:16;101133.00;;;16.90
5571;BMP180;2808;51.240;6.794;2023-05-07T06:10:44;101125.00;;;17.00
5571;BMP180;2808;51.240;6.794;2023-05-07T06:13:12;101133.00;;;17.10
5571;BMP180;2808;51.240;6.794;2023-05-07T06:15:41;101131.00;;;17.30
5571;BMP180;2808;51.240;6.794;2023-05-07T06:18:08;101138.00;;;17.40
5571;BMP180;2808;51.240;6.794;2023-05-07T06:20:36;101134.00;;;17.50
5571;BMP180;2808;51.240;6.794;2023-05-07T06:23:11;101132.00;;;17.50
5571;BMP180;2808;51.240;6.794;2023-05-07T06:25:39;101138.00;;;17.50
5571;BMP180;2808;51.240;6.794;2023-05-07T06:28:06;101145.00;;;17.60
5571;BMP180;2808;51.240;6.794;2023-05-07T06:30:43;101141.00;;;17.60
5571;BMP180;2808;51.240;6.794;2023-05-07T06:33:14;101155.00;;;17.60
5571;BMP180;2808;51.240;6.794;2023-05-07T06:35:42;101153.00;;;17.70
5571;BMP180;2808;51.240;6.794;2023-05-07T06:38:12;101154.00;;;17.80
5571;BMP180;2808;51.240;6.794;2023-05-07T06:40:40;101141.00;;;17.90
5571;BMP180;2808;51.240;6.794;2023-05-07T06:43:07;101151.00;;;18.00
5571;BMP180;2808;51.240;6.794;2023-05-07T06:45:34;101145.00;;;18.10
5571;BMP180;2808;51.240;6.794;2023-05-07T06:48:05;101145.00;;;18.20
5571;BMP180;2808;51.240;6.794;2023-05-07T06:50:34;101151.00;;;18.30
5571;BMP180;2808;51.240;6.794;2023-05-07T06:53:01;101143.00;;;18.70
5571;BMP180;2808;51.240;6.794;2023-05-07T06:55:36;101146.00;;;19.20
5571;BMP180;2808;51.240;6.794;2023-05-07T06:58:04;101143.00;;;19.60
5571;BMP180;2808;51.240;6.794;2023-05-07T07:00:32;101145.00;;;19.70
5571;BMP180;2808;51.240;6.794;2023-05-07T07:02:59;101147.00;;;20.00
5571;BMP180;2808;51.240;6.794;2023-05-07T07:05:26;101145.00;;;20.30
5571;BMP180;2808;51.240;6.794;2023-05-07T07:07:59;101152.00;;;20.60
5571;BMP180;2808;51.240;6.794;2023-05-07T07:10:27;101148.00;;;20.90
5571;BMP180;2808;51.240;6.794;2023-05-07T07:12:54;101150.00;;;21.00
5571;BMP180;2808;51.240;6.794;2023-05-07T07:15:21;101149.00;;;21.30
5571;BMP180;2808;51.240;6.794;2023-05-07T07:17:51;101147.00;;;21.60
5571;BMP180;2808;51.240;6.794;2023-05-07T07:20:18;101157.00;;;22.00
5571;BMP180;2808;51.240;6.794;2023-05-07T07:22:45;101157.00;;;22.00
5571;BMP180;2808;51.240;6.794;2023-05-07T07:25:14;101147.00;;;21.70
5571;BMP180;2808;51.240;6.794;2023-05-07T07:27:41;101157.00;;;21.50
5571;BMP180;2808;51.240;6.794;2023-05-07T07:30:09;101149.00;;;21.60
5571;BMP180;2808;51.240;6.794;2023-05-07T07:32:38;101162.00;;;21.70
5571;BMP180;2808;51.240;6.794;2023-05-07T07:35:06;101167.00;;;21.80
5571;BMP180;2808;51.240;6.794;2023-05-07T07:37:33;101165.00;;;21.60
5571;BMP180;2808;51.240;6.794;2023-05-07T07:40:01;101162.00;;;21.70
5571;BMP180;2808;51.240;6.794;2023-05-07T07:42:30;101162.00;;;21.90
5571;BMP180;2808;51.240;6.794;2023-05-07T07:44:58;101167.00;;;21.90
5571;BMP180;2808;51.240;6.794;2023-05-07T07:47:25;101169.00;;;21.90
5571;BMP180;2808;51.240;6.794;2023-05-07T07:49:52;101160.00;;;21.70
5571;BMP180;2808;51.240;6.794;2023-05-07T07:52:20;101168.00;;;21.40
5571;BMP180;2808;51.240;6.794;2023-05-07T07:54:47;101171.00;;;21.30
5571;BMP180;2808;51.240;6.794;2023-05-07T07:57:14;101163.00;;;21.40
5571;BMP180;2808;51.240;6.794;2023-05-07T07:59:43;101163.00;;;21.30
5571;BMP180;2808;51.240;6.794;2023-05-07T08:02:11;101165.00;;;21.30
5571;BMP180;2808;51.240;6.794;2023-05-07T08:04:41;101173.00;;;21.30
5571;BMP180;2808;51.240;6.794;2023-05-07T08:07:09;101176.00;;;21.60
5571;BMP180;2808;51.240;6.794;2023-05-07T08:09:38;101170.00;;;22.00
5571;BMP180;2808;51.240;6.794;2023-05-07T08:12:06;101163.00;;;22.20
5571;BMP180;2808;51.240;6.794;2023-05-07T08:14:34;101170.00;;;22.30
5571;BMP180;2808;51.240;6.794;2023-05-07T08:17:03;101168.00;;;22.60
5571;BMP180;2808;51.240;6.794;2023-05-07T08:19:34;101172.00;;;22.80
5571;BMP180;2808;51.240;6.794;2023-05-07T08:22:01;101177.00;;;22.20
5571;BMP180;2808;51.240;6.794;2023-05-07T08:24:29;101179.00;;;22.40
5571;BMP180;2808;51.240;6.794;2023-05-07T08:26:56;101179.00;;;22.40
5571;BMP180;2808;51.240;6.794;2023-05-07T08:29:25;101179.00;;;22.50
5571;BMP180;2808;51.240;6.794;2023-05-07T08:31:53;101172.00;;;22.70
5571;BMP180;2808;51.240;6.794;2023-05-07T08:34:24;101182.00;;;22.80
5571;BMP180;2808;51.240;6.794;2023-05-07T08:36:51;101172.00;;;23.10
5571;BMP180;2808;51.240;6.794;2023-05-07T08:39:19;101179.00;;;23.00
5571;BMP180;2808;51.240;6.794;2023-05-07T08:41:49;101181.00;;;23.30
5571;BMP180;2808;51.240;6.794;2023-05-07T08:44:21;101179.00;;;23.50
5571;BMP180;2808;51.240;6.794;2023-05-07T08:46:54;101184.00;;;23.50
5571;BMP180;2808;51.240;6.794;2023-05-07T08:49:24;101184.00;;;23.40
5571;BMP180;2808;51.240;6.794;2023-05-07T08:51:51;101185.00;;;23.50
5571;BMP180;2808;51.240;6.794;2023-05-07T08:54:19;101190.00;;;23.60
5571;BMP180;2808;51.240;6.794;2023-05-07T08:56:47;101177.00;;;23.60
5571;BMP180;2808;51.240;6.794;2023-05-07T08:59:14;101184.00;;;23.30
5571;BMP180;2808;51.240;6.794;2023-05-07T09:01:42;101189.00;;;23.10
5571;BMP180;2808;51.240;6.794;2023-05-07T09:04:10;101188.00;;;23.10
5571;BMP180;2808;51.240;6.794;2023-05-07T09:06:40;101186.00;;;23.00
5571;BMP180;2808;51.240;6.794;2023-05-07T09:09:08;101187.00;;;23.00
5571;BMP180;2808;51.240;6.794;2023-05-07T09:11:35;101189.00;;;22.90
5571;BMP180;2808;51.240;6.794;2023-05-07T09:14:02;101182.00;;;23.00
5571;BMP180;2808;51.240;6.794;2023-05-07T09:16:30;101177.00;;;23.00
5571;BMP180;2808;51.240;6.794;2023-05-07T09:18:59;101183.00;;;23.00
5571;BMP180;2808;51.240;6.794;2023-05-07T09:21:26;101192.00;;;23.10
5571;BMP180;2808;51.240;6.794;2023-05-07T09:23:55;101184.00;;;22.90
5571;BMP180;2808;51.240;6.794;2023-05-07T09:26:24;101184.00;;;23.00
5571;BMP180;2808;51.240;6.794;2023-05-07T09:28:54;101186.00;;;23.20
5571;BMP180;2808;51.240;6.794;2023-05-07T09:31:21;101193.00;;;23.50
5571;BMP180;2808;51.240;6.794;2023-05-07T09:33:52;101186.00;;;23.50
5571;BMP180;2808;51.240;6.794;2023-05-07T09:36:21;101190.00;;;23.40
5571;BMP180;2808;51.240;6.794;2023-05-07T09:38:49;101184.00;;;22.90
5571;BMP180;2808;51.240;6.794;2023-05-07T09:41:19;101186.00;;;22.90
5571;BMP180;2808;51.240;6.794;2023-05-07T09:43:47;101188.00;;;23.00
5571;BMP180;2808;51.240;6.794;2023-05-07T09:46:27;101185.00;;;23.10
5571;BMP180;2808;51.240;6.794;2023-05-07T09:48:57;101182.00;;;23.00
5571;BMP180;2808;51.240;6.794;2023-05-07T09:51:30;101180.00;;;23.10
5571;BMP180;2808;51.240;6.794;2023-05-07T09:53:59;101173.00;;;23.00
5571;BMP180;2808;51.240;6.794;2023-05-07T09:56:31;101177.00;;;23.10
5571;BMP180;2808;51.240;6.794;2023-05-07T09:59:00;101169.00;;;23.30
5571;BMP180;2808;51.240;6.794;2023-05-07T10:01:27;101168.00;;;23.50
5571;BMP180;2808;51.240;6.794;2023-05-07T10:03:56;101177.00;;;23.40
5571;BMP180;2808;51.240;6.794;2023-05-07T10:06:25;101178.00;;;23.40
5571;BMP180;2808;51.240;6.794;2023-05-07T10:08:53;101176.00;;;23.60
5571;BMP180;2808;51.240;6.794;2023-05-07T10:11:22;101177.00;;;23.90
5571;BMP180;2808;51.240;6.794;2023-05-07T10:13:53;101177.00;;;23.80
5571;BMP180;2808;51.240;6.794;2023-05-07T10:16:21;101175.00;;;23.70
5571;BMP180;2808;51.240;6.794;2023-05-07T10:18:50;101169.00;;;23.80
5571;BMP180;2808;51.240;6.794;2023-05-07T10:21:20;101170.00;;;23.90
5571;BMP180;2808;51.240;6.794;2023-05-07T10:23:50;101172.00;;;24.00
5571;BMP180;2808;51.240;6.794;2023-05-07T10:26:20;101178.00;;;24.00
5571;BMP180;2808;51.240;6.794;2023-05-07T10:28:54;101172.00;;;23.80
5571;BMP180;2808;51.240;6.794;2023-05-07T10:34:23;101177.00;;;23.90
5571;BMP180;2808;51.240;6.794;2023-05-07T10:36:52;101178.00;;;24.00
5571;BMP180;2808;51.240;6.794;2023-05-07T10:39:21;101173.00;;;24.00
5571;BMP180;2808;51.240;6.794;2023-05-07T10:41:49;101169.00;;;24.00
5571;BMP180;2808;51.240;6.794;2023-05-07T10:44:27;101174.00;;;24.00
5571;BMP180;2808;51.240;6.794;2023-05-07T10:47:05;101176.00;;;23.90
5571;BMP180;2808;51.240;6.794;2023-05-07T10:49:35;101173.00;;;24.10
5571;BMP180;2808;51.240;6.794;2023-05-07T10:52:13;101171.00;;;24.20
5571;BMP180;2808;51.240;6.794;2023-05-07T10:54:42;101178.00;;;24.20
5571;BMP180;2808;51.240;6.794;2023-05-07T10:57:34;101168.00;;;24.30
5571;BMP180;2808;51.240;6.794;2023-05-07T11:00:42;101165.00;;;24.50
5571;BMP180;2808;51.240;6.794;2023-05-07T11:03:10;101163.00;;;24.70
5571;BMP180;2808;51.240;6.794;2023-05-07T11:05:39;101159.00;;;24.80
5571;BMP180;2808;51.240;6.794;2023-05-07T11:08:11;101164.00;;;25.00
5571;BMP180;2808;51.240;6.794;2023-05-07T11:10:50;101164.00;;;25.00
5571;BMP180;2808;51.240;6.794;2023-05-07T11:16:18;101161.00;;;25.10
5571;BMP180;2808;51.240;6.794;2023-05-07T11:18:47;101155.00;;;24.90
5571;BMP180;2808;51.240;6.794;2023-05-07T11:21:31;101157.00;;;24.70
5571;BMP180;2808;51.240;6.794;2023-05-07T11:24:01;101149.00;;;24.80
5571;BMP180;2808;51.240;6.794;2023-05-07T11:26:31;101149.00;;;24.90
5571;BMP180;2808;51.240;6.794;2023-05-07T11:29:15;101153.00;;;24.80
5571;BMP180;2808;51.240;6.794;2023-05-07T11:31:50;101162.00;;;24.80
5571;BMP180;2808;51.240;6.794;2023-05-07T11:34:21;101152.00;;;24.70
5571;BMP180;2808;51.240;6.794;2023-05-07T11:36:49;101156.00;;;24.70
5571;BMP180;2808;51.240;6.794;2023-05-07T11:39:30;101153.00;;;24.60
5571;BMP180;2808;51.240;6.794;2023-05-07T11:41:59;101154.00;;;24.50
5571;BMP180;2808;51.240;6.794;2023-05-07T11:44:43;101153.00;;;24.60
5571;BMP180;2808;51.240;6.794;2023-05-07T11:47:17;101147.00;;;24.70
5571;BMP180;2808;51.240;6.794;2023-05-07T11:49:47;101157.00;;;24.60
5571;BMP180;2808;51.240;6.794;2023-05-07T11:52:15;101156.00;;;24.70
5571;BMP180;2808;51.240;6.794;2023-05-07T11:54:49;101154.00;;;24.90
5571;BMP180;2808;51.240;6.794;2023-05-07T11:57:16;101151.00;;;25.00
5571;BMP180;2808;51.240;6.794;2023-05-07T11:59:44;101151.00;;;25.20
5571;BMP180;2808;51.240;6.794;2023-05-07T12:02:14;101153.00;;;25.10
5571;BMP180;2808;51.240;6.794;2023-05-07T12:04:42;101155.00;;;25.00
5571;BMP180;2808;51.240;6.794;2023-05-07T12:07:12;101165.00;;;24.90
5571;BMP180;2808;51.240;6.794;2023-05-07T12:09:40;101160.00;;;24.70
5571;BMP180;2808;51.240;6.794;2023-05-07T12:12:08;101164.00;;;24.50
5571;BMP180;2808;51.240;6.794;2023-05-07T12:14:38;101163.00;;;24.40
5571;BMP180;2808;51.240;6.794;2023-05-07T12:17:06;101172.00;;;24.30
5571;BMP180;2808;51.240;6.794;2023-05-07T12:19:36;101172.00;;;24.30
5571;BMP180;2808;51.240;6.794;2023-05-07T12:22:04;101170.00;;;24.30
5571;BMP180;2808;51.240;6.794;2023-05-07T12:24:45;101176.00;;;24.10
5571;BMP180;2808;51.240;6.794;2023-05-07T12:27:14;101177.00;;;24.00
5571;BMP180;2808;51.240;6.794;2023-05-07T12:29:44;101176.00;;;23.80
5571;BMP180;2808;51.240;6.794;2023-05-07T12:32:14;101174.00;;;23.80
5571;BMP180;2808;51.240;6.794;2023-05-07T12:34:43;101174.00;;;23.70
5571;BMP180;2808;51.240;6.794;2023-05-07T12:37:11;101171.00;;;23.70
5571;BMP180;2808;51.240;6.794;2023-05-07T12:39:43;101168.00;;;23.60
5571;BMP180;2808;51.240;6.794;2023-05-07T12:42:15;101179.00;;;23.60
5571;BMP180;2808;51.240;6.794;2023-05-07T12:44:46;101170.00;;;23.50
5571;BMP180;2808;51.240;6.794;2023-05-07T12:47:15;101179.00;;;23.50
5571;BMP180;2808;51.240;6.794;2023-05-07T12:49:44;101171.00;;;23.40
5571;BMP180;2808;51.240;6.794;2023-05-07T12:52:13;101167.00;;;23.30
5571;BMP180;2808;51.240;6.794;2023-05-07T12:54:41;101168.00;;;23.30
5571;BMP180;2808;51.240;6.794;2023-05-07T12:57:09;101172.00;;;23.30
5571;BMP180;2808;51.240;6.794;2023-05-07T12:59:39;101171.00;;;23.30
5571;BMP180;2808;51.240;6.794;2023-05-07T13:02:07;101168.00;;;23.30
5571;BMP180;2808;51.240;6.794;2023-05-07T13:04:35;101172.00;;;23.40
5571;BMP180;2808;51.240;6.794;2023-05-07T13:07:04;101179.00;;;23.30
5571;BMP180;2808;51.240;6.794;2023-05-07T13:09:31;101180.00;;;23.30
5571;BMP180;2808;51.240;6.794;2023-05-07T13:11:59;101181.00;;;23.10
5571;BMP180;2808;51.240;6.794;2023-05-07T13:14:27;101179.00;;;23.00
5571;BMP180;2808;51.240;6.794;2023-05-07T13:16:54;101190.00;;;22.80
5571;BMP180;2808;51.240;6.794;2023-05-07T13:19:22;101196.00;;;22.60
5571;BMP180;2808;51.240;6.794;2023-05-07T13:21:57;101203.00;;;22.10
5571;BMP180;2808;51.240;6.794;2023-05-07T13:24:25;101201.00;;;21.80
5571;BMP180;2808;51.240;6.794;2023-05-07T13:26:53;101221.00;;;21.40
5571;BMP180;2808;51.240;6.794;2023-05-07T13:29:20;101210.00;;;21.20
5571;BMP180;2808;51.240;6.794;2023-05-07T13:31:51;101213.00;;;21.10
5571;BMP180;2808;51.240;6.794;2023-05-07T13:34:18;101208.00;;;21.00
5571;BMP180;2808;51.240;6.794;2023-05-07T13:36:46;101216.00;;;20.80
5571;BMP180;2808;51.240;6.794;2023-05-07T13:39:13;101222.00;;;20.80
5571;BMP180;2808;51.240;6.794;2023-05-07T13:41:43;101217.00;;;20.70
5571;BMP180;2808;51.240;6.794;2023-05-07T13:44:10;101219.00;;;20.60
5571;BMP180;2808;51.240;6.794;2023-05-07T13:46:37;101231.00;;;20.60
5571;BMP180;2808;51.240;6.794;2023-05-07T13:49:05;101223.00;;;20.30
5571;BMP180;2808;51.240;6.794;2023-05-07T13:51:32;101226.00;;;20.00
5571;BMP180;2808;51.240;6.794;2023-05-07T13:54:00;101230.00;;;20.00
5571;BMP180;2808;51.240;6.794;2023-05-07T13:56:27;101232.00;;;19.80
5571;BMP180;2808;51.240;6.794;2023-05-07T13:58:58;101233.00;;;19.70
5571;BMP180;2808;51.240;6.794;2023-05-07T14:01:25;101235.00;;;19.50
5571;BMP180;2808;51.240;6.794;2023-05-07T14:03:52;101225.00;;;19.30
5571;BMP180;2808;51.240;6.794;2023-05-07T14:06:20;101226.00;;;19.20
5571;BMP180;2808;51.240;6.794;2023-05-07T14:08:47;101233.00;;;19.20
5571;BMP180;2808;51.240;6.794;2023-05-07T14:11:15;101221.00;;;19.20
5571;BMP180;2808;51.240;6.794;2023-05-07T14:13:42;101228.00;;;19.20
5571;BMP180;2808;51.240;6.794;2023-05-07T14:16:11;101239.00;;;19.10
5571;BMP180;2808;51.240;6.794;2023-05-07T14:18:38;101243.00;;;19.10
5571;BMP180;2808;51.240;6.794;2023-05-07T14:21:05;101256.00;;;19.10
5571;BMP180;2808;51.240;6.794;2023-05-07T14:23:33;101249.00;;;19.20
5571;BMP180;2808;51.240;6.794;2023-05-07T14:26:00;101268.00;;;19.20
5571;BMP180;2808;51.240;6.794;2023-05-07T14:28:28;101263.00;;;19.20
5571;BMP180;2808;51.240;6.794;2023-05-07T14:30:55;101269.00;;;19.10
5571;BMP180;2808;51.240;6.794;2023-05-07T14:33:24;101255.00;;;19.00
5571;BMP180;2808;51.240;6.794;2023-05-07T14:35:52;101265.00;;;19.00